sensor_id;sensor_type;location;lat;lon;timestamp;temperature;humidity
6690;DHT22;76797;51.590;8.116;2024-03-06T00:02:18;11.10;99.90
6690;DHT22;76797;51.590;8.116;2024-03-06T00:04:44;11.10;99.90
6690;DHT22;76797;51.590;8.116;2024-03-06T00:07:10;11.10;99.90
6690;DHT22;76797;51.590;8.116;2024-03-06T00:09:36;11.10;99.90
6690;DHT22;76797;51.590;8.116;2024-03-06T00:12:02;11.10;99.90
6690;DHT22;76797;51.590;8.116;2024-03-06T00:14:27;11.10;99.90
6690;DHT22;76797;51.590;8.116;2024-03-06T00:16:53;11.10;99.90
6690;DHT22;76797;51.590;8.116;2024-03-06T00:19:21;11.20;99.90
6690;DHT22;76797;51.590;8.116;2024-03-06T00:21:47;11.10;99.90
6690;DHT22;76797;51.590;8.116;2024-03-06T00:24:13;11.40;99.90
6690;DHT22;76797;51.590;8.116;2024-03-06T00:26:45;11.10;99.90
6690;DHT22;76797;51.590;8.116;2024-03-06T00:29:12;11.00;99.90
6690;DHT22;76797;51.590;8.116;2024-03-06T00:31:43;11.30;99.90
6690;DHT22;76797;51.590;8.116;2024-03-06T00:34:10;11.10;99.90
6690;DHT22;76797;51.590;8.116;2024-03-06T00:36:36;11.20;99.90
6690;DHT22;76797;51.590;8.116;2024-03-06T00:39:02;11.20;99.90
6690;DHT22;76797;51.590;8.116;2024-03-06T00:41:30;11.20;99.90
6690;DHT22;76797;51.590;8.116;2024-03-06T00:43:55;11.60;99.90
6690;DHT22;76797;51.590;8.116;2024-03-06T00:46:21;11.20;99.90
6690;DHT22;76797;51.590;8.116;2024-03-06T00:48:47;11.20;99.90
6690;DHT22;76797;51.590;8.116;2024-03-06T00:51:13;11.20;99.90
6690;DHT22;76797;51.590;8.116;2024-03-06T00:53:38;11.20;99.90
6690;DHT22;76797;51.590;8.116;2024-03-06T00:56:04;11.20;99.90
6690;DHT22;76797;51.590;8.116;2024-03-06T00:58:30;11.20;99.90
6690;DHT22;76797;51.590;8.116;2024-03-06T01:00:55;11.30;99.90
6690;DHT22;76797;51.590;8.116;2024-03-06T01:03:21;11.20;99.90
6690;DHT22;76797;51.590;8.116;2024-03-06T01:05:46;11.30;99.90
6690;DHT22;76797;51.590;8.116;2024-03-06T01:08:12;11.30;99.90
6690;DHT22;76797;51.590;8.116;2024-03-06T01:10:37;11.30;99.90
6690;DHT22;76797;51.590;8.116;2024-03-06T01:13:03;11.80;99.90
6690;DHT22;76797;51.590;8.116;2024-03-06T01:15:28;11.30;99.90
6690;DHT22;76797;51.590;8.116;2024-03-06T01:17:54;11.30;99.90
6690;DHT22;76797;51.590;8.116;2024-03-06T01:20:19;11.30;99.90
6690;DHT22;76797;51.590;8.116;2024-03-06T01:22:45;11.30;99.90
6690;DHT22;76797;51.590;8.116;2024-03-06T01:25:12;11.30;99.90
6690;DHT22;76797;51.590;8.116;2024-03-06T01:27:37;11.30;99.90
6690;DHT22;76797;51.590;8.116;2024-03-06T01:30:03;11.30;99.90
6690;DHT22;76797;51.590;8.116;2024-03-06T01:32:29;11.30;99.90
6690;DHT22;76797;51.590;8.116;2024-03-06T01:34:55;11.30;99.90
6690;DHT22;76797;51.590;8.116;2024-03-06T01:37:20;11.30;99.90
6690;DHT22;76797;51.590;8.116;2024-03-06T01:39:46;11.20;99.90
6690;DHT22;76797;51.590;8.116;2024-03-06T01:42:11;11.20;99.90
6690;DHT22;76797;51.590;8.116;2024-03-06T01:44:37;11.30;99.90
6690;DHT22;76797;51.590;8.116;2024-03-06T01:47:03;11.60;99.90
6690;DHT22;76797;51.590;8.116;2024-03-06T01:49:29;11.30;99.90
6690;DHT22;76797;51.590;8.116;2024-03-06T01:51:56;11.50;99.90
6690;DHT22;76797;51.590;8.116;2024-03-06T01:54:23;11.20;99.90
6690;DHT22;76797;51.590;8.116;2024-03-06T01:56:49;11.60;99.90
6690;DHT22;76797;51.590;8.116;2024-03-06T01:59:16;11.20;99.90
6690;DHT22;76797;51.590;8.116;2024-03-06T02:01:43;11.20;99.90
6690;DHT22;76797;51.590;8.116;2024-03-06T02:04:09;11.20;99.90
6690;DHT22;76797;51.590;8.116;2024-03-06T02:06:40;11.20;99.90
6690;DHT22;76797;51.590;8.116;2024-03-06T02:09:06;11.20;99.90
6690;DHT22;76797;51.590;8.116;2024-03-06T02:11:33;11.20;99.90
6690;DHT22;76797;51.590;8.116;2024-03-06T02:13:59;11.20;99.90
6690;DHT22;76797;51.590;8.116;2024-03-06T02:16:24;11.20;99.90
6690;DHT22;76797;51.590;8.116;2024-03-06T02:18:54;11.60;99.90
6690;DHT22;76797;51.590;8.116;2024-03-06T02:21:21;11.20;99.90
6690;DHT22;76797;51.590;8.116;2024-03-06T02:23:47;11.10;99.90
6690;DHT22;76797;51.590;8.116;2024-03-06T02:26:12;11.20;99.90
6690;DHT22;76797;51.590;8.116;2024-03-06T02:28:38;11.40;99.90
6690;DHT22;76797;51.590;8.116;2024-03-06T02:31:04;11.30;99.90
6690;DHT22;76797;51.590;8.116;2024-03-06T02:33:32;11.20;99.90
6690;DHT22;76797;51.590;8.116;2024-03-06T02:35:59;11.10;99.90
6690;DHT22;76797;51.590;8.116;2024-03-06T02:38:25;11.20;99.90
6690;DHT22;76797;51.590;8.116;2024-03-06T02:40:50;11.10;99.90
6690;DHT22;76797;51.590;8.116;2024-03-06T02:43:16;11.30;99.90
6690;DHT22;76797;51.590;8.116;2024-03-06T02:45:42;11.20;99.90
6690;DHT22;76797;51.590;8.116;2024-03-06T02:48:08;11.10;99.90
6690;DHT22;76797;51.590;8.116;2024-03-06T02:50:33;11.20;99.90
6690;DHT22;76797;51.590;8.116;2024-03-06T02:52:59;11.10;99.90
6690;DHT22;76797;51.590;8.116;2024-03-06T02:55:24;11.20;99.90
6690;DHT22;76797;51.590;8.116;2024-03-06T02:57:50;11.20;99.90
6690;DHT22;76797;51.590;8.116;2024-03-06T03:00:16;11.20;99.90
6690;DHT22;76797;51.590;8.116;2024-03-06T03:02:41;11.20;99.90
6690;DHT22;76797;51.590;8.116;2024-03-06T03:05:08;11.40;99.90
6690;DHT22;76797;51.590;8.116;2024-03-06T03:07:33;11.20;99.90
6690;DHT22;76797;51.590;8.116;2024-03-06T03:09:59;11.50;99.90
6690;DHT22;76797;51.590;8.116;2024-03-06T03:12:24;11.10;99.90
6690;DHT22;76797;51.590;8.116;2024-03-06T03:14:50;11.50;99.90
6690;DHT22;76797;51.590;8.116;2024-03-06T03:17:16;11.10;99.90
6690;DHT22;76797;51.590;8.116;2024-03-06T03:19:42;11.10;99.90
6690;DHT22;76797;51.590;8.116;2024-03-06T03:22:08;11.10;99.90
6690;DHT22;76797;51.590;8.116;2024-03-06T03:24:34;11.10;99.90
6690;DHT22;76797;51.590;8.116;2024-03-06T03:27:00;11.10;99.90
6690;DHT22;76797;51.590;8.116;2024-03-06T03:29:26;11.00;99.90
6690;DHT22;76797;51.590;8.116;2024-03-06T03:31:52;11.00;99.90
6690;DHT22;76797;51.590;8.116;2024-03-06T03:34:18;11.40;99.90
6690;DHT22;76797;51.590;8.116;2024-03-06T03:36:44;11.00;99.90
6690;DHT22;76797;51.590;8.116;2024-03-06T03:39:10;11.00;99.90
6690;DHT22;76797;51.590;8.116;2024-03-06T03:41:46;10.90;99.90
6690;DHT22;76797;51.590;8.116;2024-03-06T03:44:16;10.90;99.90
6690;DHT22;76797;51.590;8.116;2024-03-06T03:46:43;10.90;99.90
6690;DHT22;76797;51.590;8.116;2024-03-06T03:49:08;11.30;99.90
6690;DHT22;76797;51.590;8.116;2024-03-06T03:51:38;10.80;99.90
6690;DHT22;76797;51.590;8.116;2024-03-06T03:54:03;10.90;99.90
6690;DHT22;76797;51.590;8.116;2024-03-06T03:56:29;10.80;99.90
6690;DHT22;76797;51.590;8.116;2024-03-06T03:58:56;10.70;99.90
6690;DHT22;76797;51.590;8.116;2024-03-06T04:01:22;10.70;99.90
6690;DHT22;76797;51.590;8.116;2024-03-06T04:03:48;10.70;99.90
6690;DHT22;76797;51.590;8.116;2024-03-06T04:06:14;11.10;99.90
6690;DHT22;76797;51.590;8.116;2024-03-06T04:08:39;10.70;99.90
6690;DHT22;76797;51.590;8.116;2024-03-06T04:11:06;11.00;99.90
6690;DHT22;76797;51.590;8.116;2024-03-06T04:13:36;10.70;99.90
6690;DHT22;76797;51.590;8.116;2024-03-06T04:16:01;10.70;99.90
6690;DHT22;76797;51.590;8.116;2024-03-06T04:18:28;10.70;99.90
6690;DHT22;76797;51.590;8.116;2024-03-06T04:20:54;10.70;99.90
6690;DHT22;76797;51.590;8.116;2024-03-06T04:23:19;11.00;99.90
6690;DHT22;76797;51.590;8.116;2024-03-06T04:25:45;10.70;99.90
6690;DHT22;76797;51.590;8.116;2024-03-06T04:28:10;10.70;99.90
6690;DHT22;76797;51.590;8.116;2024-03-06T04:30:36;10.70;99.90
6690;DHT22;76797;51.590;8.116;2024-03-06T04:33:02;10.70;99.90
6690;DHT22;76797;51.590;8.116;2024-03-06T04:35:28;10.70;99.90
6690;DHT22;76797;51.590;8.116;2024-03-06T04:37:54;11.10;99.90
6690;DHT22;76797;51.590;8.116;2024-03-06T04:40:19;10.70;99.90
6690;DHT22;76797;51.590;8.116;2024-03-06T04:42:47;10.70;99.90
6690;DHT22;76797;51.590;8.116;2024-03-06T04:45:16;10.70;99.90
6690;DHT22;76797;51.590;8.116;2024-03-06T04:47:42;10.80;99.90
6690;DHT22;76797;51.590;8.116;2024-03-06T04:50:11;10.80;99.90
6690;DHT22;76797;51.590;8.116;2024-03-06T04:52:37;10.80;99.90
6690;DHT22;76797;51.590;8.116;2024-03-06T04:55:04;10.70;99.90
6690;DHT22;76797;51.590;8.116;2024-03-06T04:57:30;10.70;99.90
6690;DHT22;76797;51.590;8.116;2024-03-06T04:59:55;10.70;99.90
6690;DHT22;76797;51.590;8.116;2024-03-06T05:02:21;10.70;99.90
6690;DHT22;76797;51.590;8.116;2024-03-06T05:04:46;10.70;99.90
6690;DHT22;76797;51.590;8.116;2024-03-06T05:07:12;10.90;99.90
6690;DHT22;76797;51.590;8.116;2024-03-06T05:09:38;10.70;99.90
6690;DHT22;76797;51.590;8.116;2024-03-06T05:12:07;10.70;99.90
6690;DHT22;76797;51.590;8.116;2024-03-06T05:14:32;10.70;99.90
6690;DHT22;76797;51.590;8.116;2024-03-06T05:16:58;10.70;99.90
6690;DHT22;76797;51.590;8.116;2024-03-06T05:19:24;10.70;99.90
6690;DHT22;76797;51.590;8.116;2024-03-06T05:22:00;10.80;99.90
6690;DHT22;76797;51.590;8.116;2024-03-06T05:24:25;10.80;99.90
6690;DHT22;76797;51.590;8.116;2024-03-06T05:26:51;10.80;99.90
6690;DHT22;76797;51.590;8.116;2024-03-06T05:29:16;10.80;99.90
6690;DHT22;76797;51.590;8.116;2024-03-06T05:31:42;10.80;99.90
6690;DHT22;76797;51.590;8.116;2024-03-06T05:34:08;10.80;99.90
6690;DHT22;76797;51.590;8.116;2024-03-06T05:36:33;10.80;99.90
6690;DHT22;76797;51.590;8.116;2024-03-06T05:38:59;10.80;99.90
6690;DHT22;76797;51.590;8.116;2024-03-06T05:41:25;10.80;99.90
6690;DHT22;76797;51.590;8.116;2024-03-06T05:43:50;11.10;99.90
6690;DHT22;76797;51.590;8.116;2024-03-06T05:46:16;10.80;99.90
6690;DHT22;76797;51.590;8.116;2024-03-06T05:48:41;10.80;99.90
6690;DHT22;76797;51.590;8.116;2024-03-06T05:51:07;10.60;99.90
6690;DHT22;76797;51.590;8.116;2024-03-06T05:53:39;10.80;99.90
6690;DHT22;76797;51.590;8.116;2024-03-06T05:56:07;11.20;99.90
6690;DHT22;76797;51.590;8.116;2024-03-06T05:58:33;11.00;99.90
6690;DHT22;76797;51.590;8.116;2024-03-06T06:01:00;10.80;99.90
6690;DHT22;76797;51.590;8.116;2024-03-06T06:03:26;11.10;99.90
6690;DHT22;76797;51.590;8.116;2024-03-06T06:05:53;10.70;99.90
6690;DHT22;76797;51.590;8.116;2024-03-06T06:08:19;10.70;99.90
6690;DHT22;76797;51.590;8.116;2024-03-06T06:10:45;10.70;99.90
6690;DHT22;76797;51.590;8.116;2024-03-06T06:13:10;10.70;99.90
6690;DHT22;76797;51.590;8.116;2024-03-06T06:15:36;10.70;99.90
6690;DHT22;76797;51.590;8.116;2024-03-06T06:18:01;10.70;99.90
6690;DHT22;76797;51.590;8.116;2024-03-06T06:20:27;10.70;99.90
6690;DHT22;76797;51.590;8.116;2024-03-06T06:22:52;10.60;99.90
6690;DHT22;76797;51.590;8.116;2024-03-06T06:25:18;10.70;99.90
6690;DHT22;76797;51.590;8.116;2024-03-06T06:27:43;10.60;99.90
6690;DHT22;76797;51.590;8.116;2024-03-06T06:30:09;10.60;99.90
6690;DHT22;76797;51.590;8.116;2024-03-06T06:32:37;10.60;99.90
6690;DHT22;76797;51.590;8.116;2024-03-06T06:35:06;10.70;99.90
6690;DHT22;76797;51.590;8.116;2024-03-06T06:37:32;10.50;99.90
6690;DHT22;76797;51.590;8.116;2024-03-06T06:39:59;10.50;99.90
6690;DHT22;76797;51.590;8.116;2024-03-06T06:42:25;10.40;99.90
6690;DHT22;76797;51.590;8.116;2024-03-06T06:44:50;10.70;99.90
6690;DHT22;76797;51.590;8.116;2024-03-06T06:47:16;10.40;99.90
6690;DHT22;76797;51.590;8.116;2024-03-06T06:49:42;10.40;99.90
6690;DHT22;76797;51.590;8.116;2024-03-06T06:52:08;10.40;99.90
6690;DHT22;76797;51.590;8.116;2024-03-06T06:54:33;10.40;99.90
6690;DHT22;76797;51.590;8.116;2024-03-06T06:56:59;10.90;99.90
6690;DHT22;76797;51.590;8.116;2024-03-06T06:59:24;10.50;99.90
6690;DHT22;76797;51.590;8.116;2024-03-06T07:01:50;10.50;99.90
6690;DHT22;76797;51.590;8.116;2024-03-06T07:04:15;10.50;99.90
6690;DHT22;76797;51.590;8.116;2024-03-06T07:06:45;10.50;99.90
6690;DHT22;76797;51.590;8.116;2024-03-06T07:09:12;10.60;99.90
6690;DHT22;76797;51.590;8.116;2024-03-06T07:11:37;10.60;99.90
6690;DHT22;76797;51.590;8.116;2024-03-06T07:14:03;10.60;99.90
6690;DHT22;76797;51.590;8.116;2024-03-06T07:16:28;11.00;99.90
6690;DHT22;76797;51.590;8.116;2024-03-06T07:18:54;11.10;99.90
6690;DHT22;76797;51.590;8.116;2024-03-06T07:21:19;10.70;99.90
6690;DHT22;76797;51.590;8.116;2024-03-06T07:23:45;11.30;99.90
6690;DHT22;76797;51.590;8.116;2024-03-06T07:26:10;10.80;99.90
6690;DHT22;76797;51.590;8.116;2024-03-06T07:28:36;11.30;99.90
6690;DHT22;76797;51.590;8.116;2024-03-06T07:31:03;10.80;99.90
6690;DHT22;76797;51.590;8.116;2024-03-06T07:33:28;10.80;99.90
6690;DHT22;76797;51.590;8.116;2024-03-06T07:35:56;10.90;99.90
6690;DHT22;76797;51.590;8.116;2024-03-06T07:38:22;11.00;99.90
6690;DHT22;76797;51.590;8.116;2024-03-06T07:40:48;11.00;99.90
6690;DHT22;76797;51.590;8.116;2024-03-06T07:43:14;11.00;99.90
6690;DHT22;76797;51.590;8.116;2024-03-06T07:45:39;11.10;99.90
6690;DHT22;76797;51.590;8.116;2024-03-06T07:48:05;11.10;99.90
6690;DHT22;76797;51.590;8.116;2024-03-06T07:50:31;11.10;99.90
6690;DHT22;76797;51.590;8.116;2024-03-06T07:52:56;11.20;99.90
6690;DHT22;76797;51.590;8.116;2024-03-06T07:55:22;11.30;99.90
6690;DHT22;76797;51.590;8.116;2024-03-06T07:57:48;11.20;99.90
6690;DHT22;76797;51.590;8.116;2024-03-06T08:00:14;11.20;99.90
6690;DHT22;76797;51.590;8.116;2024-03-06T08:02:40;11.30;99.90
6690;DHT22;76797;51.590;8.116;2024-03-06T08:05:11;11.30;99.90
6690;DHT22;76797;51.590;8.116;2024-03-06T08:07:39;11.30;99.90
6690;DHT22;76797;51.590;8.116;2024-03-06T08:10:11;11.70;99.90
6690;DHT22;76797;51.590;8.116;2024-03-06T08:12:40;11.40;99.90
6690;DHT22;76797;51.590;8.116;2024-03-06T08:15:08;11.40;99.90
6690;DHT22;76797;51.590;8.116;2024-03-06T08:17:35;11.40;99.90
6690;DHT22;76797;51.590;8.116;2024-03-06T08:20:02;11.40;99.90
6690;DHT22;76797;51.590;8.116;2024-03-06T08:22:31;11.50;99.90
6690;DHT22;76797;51.590;8.116;2024-03-06T08:24:56;11.50;99.90
6690;DHT22;76797;51.590;8.116;2024-03-06T08:27:22;11.60;99.90
6690;DHT22;76797;51.590;8.116;2024-03-06T08:29:47;11.60;99.90
6690;DHT22;76797;51.590;8.116;2024-03-06T08:32:14;11.60;99.90
6690;DHT22;76797;51.590;8.116;2024-03-06T08:34:39;11.60;99.90
6690;DHT22;76797;51.590;8.116;2024-03-06T08:37:04;11.70;99.90
6690;DHT22;76797;51.590;8.116;2024-03-06T08:39:31;11.70;99.90
6690;DHT22;76797;51.590;8.116;2024-03-06T08:41:57;11.80;99.90
6690;DHT22;76797;51.590;8.116;2024-03-06T08:44:23;11.80;99.90
6690;DHT22;76797;51.590;8.116;2024-03-06T08:46:49;11.90;99.90
6690;DHT22;76797;51.590;8.116;2024-03-06T08:49:14;12.00;99.90
6690;DHT22;76797;51.590;8.116;2024-03-06T08:51:40;12.10;99.90
6690;DHT22;76797;51.590;8.116;2024-03-06T08:54:05;12.30;99.90
6690;DHT22;76797;51.590;8.116;2024-03-06T08:56:31;12.10;99.90
6690;DHT22;76797;51.590;8.116;2024-03-06T08:58:56;12.20;99.90
6690;DHT22;76797;51.590;8.116;2024-03-06T09:01:22;12.30;99.90
6690;DHT22;76797;51.590;8.116;2024-03-06T09:03:47;12.40;99.90
6690;DHT22;76797;51.590;8.116;2024-03-06T09:06:13;12.30;99.90
6690;DHT22;76797;51.590;8.116;2024-03-06T09:08:38;12.30;99.90
6690;DHT22;76797;51.590;8.116;2024-03-06T09:11:04;12.40;99.90
6690;DHT22;76797;51.590;8.116;2024-03-06T09:13:29;12.40;99.90
6690;DHT22;76797;51.590;8.116;2024-03-06T09:15:55;12.40;99.90
6690;DHT22;76797;51.590;8.116;2024-03-06T09:18:20;12.40;99.90
6690;DHT22;76797;51.590;8.116;2024-03-06T09:20:46;12.40;99.90
6690;DHT22;76797;51.590;8.116;2024-03-06T09:23:12;12.40;99.90
6690;DHT22;76797;51.590;8.116;2024-03-06T09:25:37;12.40;99.90
6690;DHT22;76797;51.590;8.116;2024-03-06T09:28:03;12.40;99.90
6690;DHT22;76797;51.590;8.116;2024-03-06T09:30:30;12.40;99.90
6690;DHT22;76797;51.590;8.116;2024-03-06T09:32:56;12.40;99.90
6690;DHT22;76797;51.590;8.116;2024-03-06T09:35:21;12.40;99.90
6690;DHT22;76797;51.590;8.116;2024-03-06T09:37:47;12.70;99.90
6690;DHT22;76797;51.590;8.116;2024-03-06T09:40:20;12.40;99.90
6690;DHT22;76797;51.590;8.116;2024-03-06T09:42:46;12.70;99.90
6690;DHT22;76797;51.590;8.116;2024-03-06T09:45:12;12.40;99.90
6690;DHT22;76797;51.590;8.116;2024-03-06T09:47:38;12.40;99.90
6690;DHT22;76797;51.590;8.116;2024-03-06T09:50:09;12.40;99.90
6690;DHT22;76797;51.590;8.116;2024-03-06T09:52:36;12.40;99.90
6690;DHT22;76797;51.590;8.116;2024-03-06T09:55:02;12.50;99.90
6690;DHT22;76797;51.590;8.116;2024-03-06T09:57:29;12.50;99.90
6690;DHT22;76797;51.590;8.116;2024-03-06T09:59:55;12.60;99.90
6690;DHT22;76797;51.590;8.116;2024-03-06T10:02:49;12.70;99.90
6690;DHT22;76797;51.590;8.116;2024-03-06T10:05:21;12.70;99.90
6690;DHT22;76797;51.590;8.116;2024-03-06T10:07:47;12.80;99.90
6690;DHT22;76797;51.590;8.116;2024-03-06T10:10:14;12.80;99.90
6690;DHT22;76797;51.590;8.116;2024-03-06T10:12:41;12.90;99.90
6690;DHT22;76797;51.590;8.116;2024-03-06T10:15:06;13.00;99.90
6690;DHT22;76797;51.590;8.116;2024-03-06T10:17:35;13.10;99.90
6690;DHT22;76797;51.590;8.116;2024-03-06T10:20:01;13.20;99.90
6690;DHT22;76797;51.590;8.116;2024-03-06T10:22:30;13.20;99.90
6690;DHT22;76797;51.590;8.116;2024-03-06T10:24:57;13.30;99.90
6690;DHT22;76797;51.590;8.116;2024-03-06T10:27:22;13.40;99.90
6690;DHT22;76797;51.590;8.116;2024-03-06T10:30:03;13.50;99.90
6690;DHT22;76797;51.590;8.116;2024-03-06T10:32:30;13.60;99.90
6690;DHT22;76797;51.590;8.116;2024-03-06T10:34:56;13.60;99.90
6690;DHT22;76797;51.590;8.116;2024-03-06T10:37:22;13.60;99.90
6690;DHT22;76797;51.590;8.116;2024-03-06T10:39:52;13.70;99.90
6690;DHT22;76797;51.590;8.116;2024-03-06T10:42:20;13.70;99.90
6690;DHT22;76797;51.590;8.116;2024-03-06T10:44:59;13.60;99.90
6690;DHT22;76797;51.590;8.116;2024-03-06T10:47:26;13.70;99.90
6690;DHT22;76797;51.590;8.116;2024-03-06T10:49:54;13.70;99.90
6690;DHT22;76797;51.590;8.116;2024-03-06T10:52:21;13.80;99.90
6690;DHT22;76797;51.590;8.116;2024-03-06T10:54:48;13.80;99.90
6690;DHT22;76797;51.590;8.116;2024-03-06T10:57:14;13.70;99.90
6690;DHT22;76797;51.590;8.116;2024-03-06T10:59:40;14.00;99.90
6690;DHT22;76797;51.590;8.116;2024-03-06T11:02:08;13.70;99.90
6690;DHT22;76797;51.590;8.116;2024-03-06T11:04:35;13.80;99.90
6690;DHT22;76797;51.590;8.116;2024-03-06T11:07:08;13.80;99.90
6690;DHT22;76797;51.590;8.116;2024-03-06T11:09:34;13.80;99.90
6690;DHT22;76797;51.590;8.116;2024-03-06T11:12:00;13.80;99.90
6690;DHT22;76797;51.590;8.116;2024-03-06T11:14:27;14.00;99.90
6690;DHT22;76797;51.590;8.116;2024-03-06T11:17:08;13.80;99.90
6690;DHT22;76797;51.590;8.116;2024-03-06T11:28:38;13.80;99.90
6690;DHT22;76797;51.590;8.116;2024-03-06T11:31:10;13.90;99.90
6690;DHT22;76797;51.590;8.116;2024-03-06T11:33:42;13.90;99.90
6690;DHT22;76797;51.590;8.116;2024-03-06T11:41:15;14.10;99.90
6690;DHT22;76797;51.590;8.116;2024-03-06T11:43:43;14.10;99.90
6690;DHT22;76797;51.590;8.116;2024-03-06T11:46:09;14.20;99.90
6690;DHT22;76797;51.590;8.116;2024-03-06T11:48:36;14.20;99.90
6690;DHT22;76797;51.590;8.116;2024-03-06T11:51:02;14.20;99.90
6690;DHT22;76797;51.590;8.116;2024-03-06T11:53:29;14.20;99.90
6690;DHT22;76797;51.590;8.116;2024-03-06T11:55:55;14.30;99.90
6690;DHT22;76797;51.590;8.116;2024-03-06T11:58:22;14.40;99.90
6690;DHT22;76797;51.590;8.116;2024-03-06T12:00:48;14.40;99.90
6690;DHT22;76797;51.590;8.116;2024-03-06T12:03:13;14.50;99.90
6690;DHT22;76797;51.590;8.116;2024-03-06T12:05:39;14.50;99.90
6690;DHT22;76797;51.590;8.116;2024-03-06T12:08:06;14.40;99.90
6690;DHT22;76797;51.590;8.116;2024-03-06T12:10:37;14.50;99.90
6690;DHT22;76797;51.590;8.116;2024-03-06T12:13:03;14.40;99.90
6690;DHT22;76797;51.590;8.116;2024-03-06T12:15:29;14.40;99.90
6690;DHT22;76797;51.590;8.116;2024-03-06T12:17:55;14.40;99.90
6690;DHT22;76797;51.590;8.116;2024-03-06T12:20:20;14.50;99.90
6690;DHT22;76797;51.590;8.116;2024-03-06T12:22:50;14.40;99.90
6690;DHT22;76797;51.590;8.116;2024-03-06T12:25:23;14.40;99.90
6690;DHT22;76797;51.590;8.116;2024-03-06T12:27:50;14.40;99.90
6690;DHT22;76797;51.590;8.116;2024-03-06T12:30:17;14.40;99.90
6690;DHT22;76797;51.590;8.116;2024-03-06T12:32:43;14.50;99.90
6690;DHT22;76797;51.590;8.116;2024-03-06T12:35:09;14.60;99.90
6690;DHT22;76797;51.590;8.116;2024-03-06T12:37:35;14.40;99.90
6690;DHT22;76797;51.590;8.116;2024-03-06T12:40:01;14.40;99.90
6690;DHT22;76797;51.590;8.116;2024-03-06T12:42:29;14.60;99.90
6690;DHT22;76797;51.590;8.116;2024-03-06T12:44:55;14.50;99.90
6690;DHT22;76797;51.590;8.116;2024-03-06T12:47:20;14.40;99.90
6690;DHT22;76797;51.590;8.116;2024-03-06T12:49:46;14.50;99.90
6690;DHT22;76797;51.590;8.116;2024-03-06T12:52:11;14.40;99.90
6690;DHT22;76797;51.590;8.116;2024-03-06T12:54:37;14.40;99.90
6690;DHT22;76797;51.590;8.116;2024-03-06T12:57:02;14.40;99.90
6690;DHT22;76797;51.590;8.116;2024-03-06T12:59:28;14.40;99.90
6690;DHT22;76797;51.590;8.116;2024-03-06T13:01:53;14.50;99.90
6690;DHT22;76797;51.590;8.116;2024-03-06T13:04:19;14.50;99.90
6690;DHT22;76797;51.590;8.116;2024-03-06T13:06:45;14.50;99.90
6690;DHT22;76797;51.590;8.116;2024-03-06T13:09:11;14.50;99.90
6690;DHT22;76797;51.590;8.116;2024-03-06T13:11:36;14.90;99.90
6690;DHT22;76797;51.590;8.116;2024-03-06T13:14:02;14.60;99.90
6690;DHT22;76797;51.590;8.116;2024-03-06T13:16:27;14.70;99.90
6690;DHT22;76797;51.590;8.116;2024-03-06T13:18:53;14.80;99.90
6690;DHT22;76797;51.590;8.116;2024-03-06T13:21:22;14.90;99.90
6690;DHT22;76797;51.590;8.116;2024-03-06T13:23:47;14.90;99.90
6690;DHT22;76797;51.590;8.116;2024-03-06T13:26:13;14.90;99.90
6690;DHT22;76797;51.590;8.116;2024-03-06T13:28:39;14.90;99.90
6690;DHT22;76797;51.590;8.116;2024-03-06T13:31:04;14.90;99.90
6690;DHT22;76797;51.590;8.116;2024-03-06T13:33:33;14.80;99.90
6690;DHT22;76797;51.590;8.116;2024-03-06T13:35:59;14.70;99.90
6690;DHT22;76797;51.590;8.116;2024-03-06T13:38:24;14.70;99.90
6690;DHT22;76797;51.590;8.116;2024-03-06T13:40:50;14.70;99.90
6690;DHT22;76797;51.590;8.116;2024-03-06T13:43:15;14.60;99.90
6690;DHT22;76797;51.590;8.116;2024-03-06T13:45:50;14.90;99.90
6690;DHT22;76797;51.590;8.116;2024-03-06T13:48:16;14.40;99.90
6690;DHT22;76797;51.590;8.116;2024-03-06T13:50:45;14.30;99.90
6690;DHT22;76797;51.590;8.116;2024-03-06T13:53:11;14.50;99.90
6690;DHT22;76797;51.590;8.116;2024-03-06T13:55:37;14.20;99.90
6690;DHT22;76797;51.590;8.116;2024-03-06T13:58:03;14.20;99.90
6690;DHT22;76797;51.590;8.116;2024-03-06T14:00:29;14.10;99.90
6690;DHT22;76797;51.590;8.116;2024-03-06T14:02:55;14.10;99.90
6690;DHT22;76797;51.590;8.116;2024-03-06T14:05:20;14.10;99.90
6690;DHT22;76797;51.590;8.116;2024-03-06T14:07:51;14.10;99.90
6690;DHT22;76797;51.590;8.116;2024-03-06T14:10:16;14.20;99.90
6690;DHT22;76797;51.590;8.116;2024-03-06T14:12:44;14.30;99.90
6690;DHT22;76797;51.590;8.116;2024-03-06T14:15:10;14.40;99.90
6690;DHT22;76797;51.590;8.116;2024-03-06T14:17:40;14.40;99.90
6690;DHT22;76797;51.590;8.116;2024-03-06T14:20:05;14.30;99.90
6690;DHT22;76797;51.590;8.116;2024-03-06T14:22:31;14.20;99.90
6690;DHT22;76797;51.590;8.116;2024-03-06T14:24:57;14.20;99.90
6690;DHT22;76797;51.590;8.116;2024-03-06T14:27:23;14.20;99.90
6690;DHT22;76797;51.590;8.116;2024-03-06T14:29:48;14.10;99.90
6690;DHT22;76797;51.590;8.116;2024-03-06T14:32:16;14.10;99.90
6690;DHT22;76797;51.590;8.116;2024-03-06T14:34:43;14.10;99.90
6690;DHT22;76797;51.590;8.116;2024-03-06T14:37:09;14.10;99.90
6690;DHT22;76797;51.590;8.116;2024-03-06T14:39:35;14.20;99.90
6690;DHT22;76797;51.590;8.116;2024-03-06T14:42:00;14.20;99.90
6690;DHT22;76797;51.590;8.116;2024-03-06T14:44:26;14.20;99.90
6690;DHT22;76797;51.590;8.116;2024-03-06T14:46:52;14.20;99.90
6690;DHT22;76797;51.590;8.116;2024-03-06T14:49:17;14.20;99.90
6690;DHT22;76797;51.590;8.116;2024-03-06T14:51:43;14.20;99.90
6690;DHT22;76797;51.590;8.116;2024-03-06T14:54:08;14.30;99.90
6690;DHT22;76797;51.590;8.116;2024-03-06T14:56:34;14.30;99.90
6690;DHT22;76797;51.590;8.116;2024-03-06T14:59:00;14.30;99.90
6690;DHT22;76797;51.590;8.116;2024-03-06T15:01:25;14.30;99.90
6690;DHT22;76797;51.590;8.116;2024-03-06T15:03:52;14.30;99.90
6690;DHT22;76797;51.590;8.116;2024-03-06T15:06:18;14.30;99.90
6690;DHT22;76797;51.590;8.116;2024-03-06T15:08:44;14.30;99.90
6690;DHT22;76797;51.590;8.116;2024-03-06T15:11:10;14.40;99.90
6690;DHT22;76797;51.590;8.116;2024-03-06T15:13:36;14.40;99.90
6690;DHT22;76797;51.590;8.116;2024-03-06T15:16:01;14.40;99.90
6690;DHT22;76797;51.590;8.116;2024-03-06T15:18:29;14.60;99.90
6690;DHT22;76797;51.590;8.116;2024-03-06T15:20:55;14.40;99.90
6690;DHT22;76797;51.590;8.116;2024-03-06T15:23:20;14.40;99.90
6690;DHT22;76797;51.590;8.116;2024-03-06T15:25:46;14.70;99.90
6690;DHT22;76797;51.590;8.116;2024-03-06T15:28:12;14.40;99.90
6690;DHT22;76797;51.590;8.116;2024-03-06T15:30:37;14.40;99.90
6690;DHT22;76797;51.590;8.116;2024-03-06T15:33:04;14.40;99.90
6690;DHT22;76797;51.590;8.116;2024-03-06T15:35:30;14.40;99.90
6690;DHT22;76797;51.590;8.116;2024-03-06T15:37:56;14.40;99.90
6690;DHT22;76797;51.590;8.116;2024-03-06T15:40:22;14.30;99.90
6690;DHT22;76797;51.590;8.116;2024-03-06T15:42:47;14.60;99.90
6690;DHT22;76797;51.590;8.116;2024-03-06T15:45:13;14.20;99.90
6690;DHT22;76797;51.590;8.116;2024-03-06T15:47:38;14.20;99.90
6690;DHT22;76797;51.590;8.116;2024-03-06T15:50:07;14.10;99.90
6690;DHT22;76797;51.590;8.116;2024-03-06T15:52:35;14.00;99.90
6690;DHT22;76797;51.590;8.116;2024-03-06T15:55:01;14.00;99.90